Mouthcard, Kentucky
Current Conditions -  °F | °C
As of 4:15 AM on Friday 31 Oct 2014 (Local Time) from KPBX Reporting Station
Scattered Clouds Scattered Clouds  
Wind Chill: 37°   Ceiling: Unl
Heat Index: 37°   Visibility: 10mi
Dew Point: 35°   Wind: 0mph
Humidity: 91%   Direction: NA
Pressure: 29.99"   Gusts: NA
Location:  37.38°N, 82.26°W
Report Text: KPBX 310815Z AUTO 00000KT 10SM SCT120 03/02 A2999 RMK AO2 T00280015
Loading
Personal Weather Stations






























Interactive Weather Map
Tropical Storm Tracking
New forecast layout! Learn more

10-Day Weather Forecast

Advertisements
Track Severe Weather on mobile